Greensboro, Georgia
Current Conditions -  °F | °C
As of 5:15 AM on Saturday 20 Dec 2014 (Local Time) from K3J7 Reporting Station
Light Rain Light Rain  
Wind Chill: 46°   Ceiling: 6000
Heat Index: 46°   Visibility: 7mi
Dew Point: 46°   Wind: 0mph
Humidity: 100%   Direction: NA
Pressure: 30.11"   Gusts: NA
Location:  33.58°N, 83.18°W
Report Text: K3J7 201015Z AUTO 00000KT 7SM -RA BKN060 OVC070 08/08 A3011 RMK AO2
Loading
Personal Weather Stations






























Interactive Weather Map New forecast layout! Learn more

10-Day Weather Forecast

Advertisements
Track Severe Weather on mobile